Time;durP1;ratioP1;P1;durP2;ratioP2;P2;SDS_P1;SDS_P2;PMS_P1;PMS_P2;Temp;Humidity;BMP_temperature;BMP_pressure;BME280_temperature;BME280_humidity;BME280_pressure;Samples;Min_cycle;Max_cycle;Signal;HPM_P1;HPM_P2
2023/04/29 00:01:58;;;;;;;58.70;26.42;;;10.00;99.90;;;;;;5053700;28;20132;-74
2023/04/29 00:04:27;;;;;;;56.45;25.73;;;10.00;99.90;;;;;;5052601;28;20132;-72
2023/04/29 00:06:53;;;;;;;62.40;25.73;;;10.00;99.90;;;;;;5053763;28;20045;-74
2023/04/29 00:09:20;;;;;;;61.42;27.80;;;10.00;99.90;;;;;;5036137;28;20517;-74
2023/04/29 00:11:46;;;;;;;65.35;30.77;;;9.90;99.90;;;;;;5053608;28;20063;-74
2023/04/29 00:14:12;;;;;;;62.17;30.15;;;9.90;99.90;;;;;;5053549;28;20049;-73
2023/04/29 00:16:38;;;;;;;67.60;29.75;;;9.90;99.90;;;;;;5053538;28;20044;-74
2023/04/29 00:19:04;;;;;;;63.58;28.02;;;9.90;99.90;;;;;;5052387;28;20460;-72
2023/04/29 00:21:30;;;;;;;60.08;27.05;;;9.80;99.90;;;;;;5052529;28;20136;-73
2023/04/29 00:23:56;;;;;;;58.25;27.23;;;9.80;99.90;;;;;;5053405;28;20060;-74
2023/04/29 00:26:22;;;;;;;58.30;27.48;;;9.80;99.90;;;;;;5052058;28;20052;-74
2023/04/29 00:28:48;;;;;;;64.00;31.05;;;9.80;99.90;;;;;;5035436;28;20056;-74
2023/04/29 00:31:14;;;;;;;55.83;25.20;;;9.70;99.90;;;;;;5052099;28;20045;-73
2023/04/29 00:33:40;;;;;;;54.97;25.80;;;9.70;99.90;;;;;;5053299;28;20045;-73
2023/04/29 00:36:07;;;;;;;54.47;26.90;;;9.70;99.90;;;;;;5051955;28;20049;-73
2023/04/29 00:38:33;;;;;;;57.30;26.45;;;9.70;99.90;;;;;;5035666;28;20049;-74
2023/04/29 00:40:59;;;;;;;60.55;26.80;;;9.70;99.90;;;;;;5052121;28;20040;-74
2023/04/29 00:43:25;;;;;;;49.17;23.53;;;9.70;99.90;;;;;;5052439;28;20060;-74
2023/04/29 00:45:51;;;;;;;46.85;23.73;;;9.60;99.90;;;;;;5052239;28;20045;-74
2023/04/29 00:48:16;;;;;;;44.90;25.33;;;9.60;99.90;;;;;;5052217;28;20052;-72
2023/04/29 00:50:42;;;;;;;49.50;24.25;;;9.50;99.90;;;;;;5019084;28;20423;-73
2023/04/29 00:53:11;;;;;;;55.13;26.60;;;9.50;99.90;;;;;;5051898;28;20040;-73
2023/04/29 00:55:38;;;;;;;53.75;27.15;;;9.50;99.90;;;;;;5053458;28;20049;-73
2023/04/29 00:58:03;;;;;;;49.10;26.37;;;9.50;99.90;;;;;;5052221;28;20037;-74
2023/04/29 01:00:29;;;;;;;52.05;25.98;;;9.50;99.90;;;;;;5018624;28;20294;-73
2023/04/29 01:02:56;;;;;;;53.03;24.90;;;9.50;99.90;;;;;;5051965;28;20049;-74
2023/04/29 01:05:25;;;;;;;46.80;21.58;;;9.50;99.90;;;;;;5051789;28;20106;-74
2023/04/29 01:08:23;;;;;;;50.65;26.38;;;9.50;99.90;;;;;;5052136;28;20406;-73
2023/04/29 01:10:55;;;;;;;46.45;23.10;;;9.50;99.90;;;;;;5052160;28;20127;-74
2023/04/29 01:13:48;;;;;;;42.63;21.05;;;9.50;99.90;;;;;;5051976;28;20044;-75
2023/04/29 01:16:24;;;;;;;46.10;20.42;;;9.50;99.90;;;;;;5052803;28;20429;-74
2023/04/29 01:18:53;;;;;;;46.78;20.63;;;9.50;99.90;;;;;;5053150;28;20079;-73
2023/04/29 01:21:20;;;;;;;45.30;19.58;;;9.50;99.90;;;;;;5051649;28;20045;-74
2023/04/29 01:23:45;;;;;;;43.30;18.53;;;9.50;99.90;;;;;;5052975;28;20049;-73
2023/04/29 01:26:12;;;;;;;46.90;20.90;;;9.50;99.90;;;;;;5052840;28;20293;-75
2023/04/29 01:28:58;;;;;;;43.50;21.27;;;9.50;99.90;;;;;;5051427;28;20060;-73
2023/04/29 01:31:30;;;;;;;43.97;20.45;;;9.50;99.90;;;;;;5052786;28;20080;-72
2023/04/29 01:34:09;;;;;;;41.75;21.10;;;9.50;99.90;;;;;;5035348;28;20052;-72
2023/04/29 01:37:09;;;;;;;48.38;21.42;;;9.50;99.90;;;;;;5052795;28;20079;-72
2023/04/29 01:39:53;;;;;;;47.97;23.45;;;9.50;99.90;;;;;;5052689;28;20044;-72
2023/04/29 01:42:28;;;;;;;46.70;22.38;;;9.40;99.90;;;;;;5053028;28;20048;-75
2023/04/29 01:44:58;;;;;;;47.85;22.20;;;9.40;99.90;;;;;;5052969;28;20048;-74
2023/04/29 01:47:24;;;;;;;45.33;21.67;;;9.40;99.90;;;;;;5035357;28;20049;-74
2023/04/29 01:49:49;;;;;;;49.72;22.80;;;9.50;99.90;;;;;;5056226;28;20095;-74
2023/04/29 01:52:16;;;;;;;54.38;20.80;;;9.40;99.90;;;;;;5055662;28;20045;-75
2023/04/29 01:54:42;;;;;;;46.47;20.73;;;9.50;99.90;;;;;;5055279;28;20118;-74
2023/04/29 01:57:08;;;;;;;51.83;22.65;;;9.50;99.90;;;;;;5055270;28;20454;-73
2023/04/29 01:59:33;;;;;;;53.55;21.73;;;9.50;99.90;;;;;;5056080;28;20123;-73
2023/04/29 02:01:59;;;;;;;43.28;18.27;;;9.50;99.90;;;;;;5055996;28;20043;-75
2023/04/29 02:04:27;;;;;;;48.42;24.83;;;9.50;99.90;;;;;;5056032;28;20045;-74
2023/04/29 02:06:52;;;;;;;53.60;25.80;;;9.50;99.90;;;;;;5054821;28;20049;-73
2023/04/29 02:09:18;;;;;;;56.47;23.60;;;9.50;99.90;;;;;;5055736;28;20048;-75
2023/04/29 02:11:44;;;;;;;51.67;23.02;;;9.40;99.90;;;;;;5055846;28;20397;-75
2023/04/29 02:14:11;;;;;;;50.80;24.48;;;9.40;99.90;;;;;;5054640;28;20045;-73
2023/04/29 02:16:37;;;;;;;59.17;27.23;;;9.40;99.90;;;;;;5055772;28;20084;-74
2023/04/29 02:19:03;;;;;;;57.95;26.40;;;9.40;99.90;;;;;;5056249;28;20497;-74
2023/04/29 02:21:29;;;;;;;54.90;25.77;;;9.40;99.90;;;;;;5054909;28;20037;-74
2023/04/29 02:23:54;;;;;;;58.53;27.30;;;9.30;99.90;;;;;;5037861;28;20465;-74
2023/04/29 02:26:20;;;;;;;69.18;29.48;;;9.30;99.90;;;;;;5038014;28;20053;-74
2023/04/29 02:28:46;;;;;;;62.22;27.77;;;9.30;99.90;;;;;;5054112;28;20060;-74
2023/04/29 02:31:12;;;;;;;63.00;27.58;;;9.30;99.90;;;;;;5055391;28;20186;-74
2023/04/29 02:33:38;;;;;;;58.88;27.75;;;9.30;99.90;;;;;;5054571;28;20082;-74
2023/04/29 02:36:04;;;;;;;59.13;27.33;;;9.20;99.90;;;;;;5054402;28;20037;-75
2023/04/29 02:38:30;;;;;;;55.13;25.45;;;9.20;99.90;;;;;;5054361;28;20044;-74
2023/04/29 02:40:56;;;;;;;46.97;22.77;;;9.30;99.90;;;;;;5054270;28;20045;-74
2023/04/29 02:43:22;;;;;;;53.47;23.48;;;9.20;99.90;;;;;;5054083;28;20489;-73
2023/04/29 02:45:47;;;;;;;48.72;22.08;;;9.20;99.90;;;;;;5054233;28;20055;-74
2023/04/29 02:48:13;;;;;;;52.55;23.50;;;9.20;99.90;;;;;;5055082;28;20044;-74
2023/04/29 02:50:39;;;;;;;46.70;21.98;;;9.20;99.90;;;;;;5054019;28;20041;-75
2023/04/29 02:53:05;;;;;;;45.83;19.80;;;9.20;99.90;;;;;;5037925;28;20408;-74
2023/04/29 02:55:31;;;;;;;47.40;21.83;;;9.20;99.90;;;;;;5037366;28;20434;-73
2023/04/29 02:57:56;;;;;;;42.60;18.48;;;9.20;99.90;;;;;;5054972;28;20067;-75
2023/04/29 03:00:23;;;;;;;43.63;21.45;;;9.20;99.90;;;;;;5054321;28;20405;-74
2023/04/29 03:02:48;;;;;;;39.13;18.48;;;9.20;99.90;;;;;;5053764;28;20120;-73
2023/04/29 03:05:14;;;;;;;48.15;22.67;;;9.20;99.90;;;;;;5055089;28;20489;-74
2023/04/29 03:07:40;;;;;;;45.55;21.17;;;9.20;99.90;;;;;;5054476;28;20040;-75
2023/04/29 03:10:06;;;;;;;42.65;19.10;;;9.20;99.90;;;;;;5054757;28;20118;-73
2023/04/29 03:12:33;;;;;;;42.17;19.00;;;9.10;99.90;;;;;;5036983;28;20503;-73
2023/04/29 03:14:59;;;;;;;47.17;21.75;;;9.10;99.90;;;;;;5037081;28;20044;-76
2023/04/29 03:17:25;;;;;;;42.65;18.27;;;9.10;99.90;;;;;;5087017;28;20060;-73
2023/04/29 03:19:53;;;;;;;47.45;20.92;;;9.10;99.90;;;;;;5054330;28;20049;-75
2023/04/29 03:22:19;;;;;;;44.75;21.88;;;9.20;99.90;;;;;;5020757;28;20045;-75
2023/04/29 03:24:44;;;;;;;54.72;22.90;;;9.10;99.90;;;;;;5053218;28;20405;-74
2023/04/29 03:27:10;;;;;;;53.80;22.35;;;9.10;99.90;;;;;;5054452;28;20094;-74
2023/04/29 03:29:36;;;;;;;46.55;21.80;;;9.10;99.90;;;;;;5053540;28;20052;-75
2023/04/29 03:32:02;;;;;;;53.50;19.40;;;9.10;99.90;;;;;;5053193;28;20496;-76
2023/04/29 03:34:28;;;;;;;49.05;23.70;;;9.10;99.90;;;;;;5054359;28;20120;-74
2023/04/29 03:36:54;;;;;;;45.33;17.90;;;9.10;99.90;;;;;;5053345;28;20059;-75
2023/04/29 03:39:20;;;;;;;43.72;19.85;;;9.10;99.90;;;;;;5053067;28;20389;-76
2023/04/29 03:41:46;;;;;;;42.58;19.80;;;9.20;99.90;;;;;;5052862;28;20128;-74
2023/04/29 03:44:12;;;;;;;55.05;21.27;;;9.20;99.90;;;;;;5054206;28;20079;-75
2023/04/29 03:46:38;;;;;;;41.58;18.13;;;9.10;99.90;;;;;;5036422;28;20140;-74
2023/04/29 03:49:03;;;;;;;41.30;17.50;;;9.20;99.90;;;;;;5036534;28;20040;-74
2023/04/29 03:51:30;;;;;;;40.95;18.08;;;9.20;99.90;;;;;;5053553;28;20045;-75
2023/04/29 03:53:58;;;;;;;34.90;16.38;;;9.10;99.90;;;;;;5054076;28;20045;-74
2023/04/29 03:56:26;;;;;;;41.33;18.25;;;9.10;99.90;;;;;;5054679;28;20127;-73
2023/04/29 03:58:52;;;;;;;37.47;16.60;;;9.10;99.90;;;;;;5054104;28;20407;-76
2023/04/29 04:01:18;;;;;;;47.58;21.38;;;9.10;99.90;;;;;;5053745;28;20065;-75
2023/04/29 04:03:44;;;;;;;39.35;16.40;;;9.00;99.90;;;;;;5052579;28;20040;-73
2023/04/29 04:06:10;;;;;;;44.97;17.10;;;9.10;99.90;;;;;;5052246;28;20125;-74
2023/04/29 04:08:36;;;;;;;38.85;18.77;;;9.10;99.90;;;;;;5053379;28;20067;-73
2023/04/29 04:11:02;;;;;;;41.72;16.55;;;9.00;99.90;;;;;;5053284;28;20139;-74
2023/04/29 04:13:28;;;;;;;45.63;19.33;;;9.00;99.90;;;;;;5035859;28;20053;-74
2023/04/29 04:15:54;;;;;;;35.83;17.05;;;9.00;99.90;;;;;;5053485;28;20045;-73
2023/04/29 04:18:20;;;;;;;47.40;17.92;;;9.10;99.90;;;;;;5052463;28;20090;-74
2023/04/29 04:20:46;;;;;;;45.30;18.15;;;9.00;99.90;;;;;;5053461;28;20492;-74
2023/04/29 04:23:12;;;;;;;43.43;21.73;;;9.00;99.90;;;;;;5052383;28;20057;-73
2023/04/29 04:25:43;;;;;;;42.17;20.50;;;9.00;99.90;;;;;;5035784;28;20183;-76
2023/04/29 04:28:09;;;;;;;47.85;22.42;;;9.00;99.90;;;;;;5052035;28;20057;-75
2023/04/29 04:30:35;;;;;;;44.00;19.42;;;9.00;99.90;;;;;;5035760;28;20060;-75
2023/04/29 04:33:01;;;;;;;56.90;22.58;;;9.00;99.90;;;;;;5052157;28;20045;-74
2023/04/29 04:35:27;;;;;;;42.83;19.08;;;9.00;99.90;;;;;;5053429;28;20045;-75
2023/04/29 04:37:53;;;;;;;38.85;17.40;;;9.00;99.90;;;;;;5053272;28;20051;-74
2023/04/29 04:40:18;;;;;;;47.60;18.60;;;9.00;99.90;;;;;;5052152;28;20124;-74
2023/04/29 04:42:44;;;;;;;43.15;17.40;;;9.00;99.90;;;;;;5053136;28;20041;-73
2023/04/29 04:45:10;;;;;;;45.38;17.58;;;9.00;99.90;;;;;;5053803;28;20045;-74
2023/04/29 04:47:36;;;;;;;42.45;17.10;;;9.00;99.90;;;;;;5054091;28;20097;-73
2023/04/29 04:50:03;;;;;;;46.55;19.65;;;9.00;99.90;;;;;;5035336;28;20056;-74
2023/04/29 04:52:28;;;;;;;43.50;16.10;;;9.00;99.90;;;;;;5052144;28;20049;-73
2023/04/29 04:54:55;;;;;;;40.15;16.55;;;9.00;99.90;;;;;;5053705;28;20052;-74
2023/04/29 04:57:21;;;;;;;38.00;17.98;;;9.10;99.90;;;;;;5053262;28;20056;-74
2023/04/29 04:59:47;;;;;;;32.90;13.15;;;9.00;99.90;;;;;;5035228;28;20052;-74
2023/04/29 05:02:12;;;;;;;35.35;15.25;;;9.00;99.90;;;;;;5035352;28;20183;-75
2023/04/29 05:04:38;;;;;;;32.08;12.60;;;9.00;99.90;;;;;;5053662;28;20118;-75
2023/04/29 05:07:04;;;;;;;36.60;15.18;;;9.00;99.90;;;;;;5051771;28;20049;-74
2023/04/29 05:09:30;;;;;;;38.58;15.68;;;9.10;99.90;;;;;;5053100;28;20055;-75
2023/04/29 05:11:58;;;;;;;42.88;15.57;;;9.00;99.90;;;;;;5053170;28;20124;-73
2023/04/29 05:14:24;;;;;;;39.97;16.35;;;9.10;99.90;;;;;;5035675;28;20559;-74
2023/04/29 05:16:51;;;;;;;39.00;15.60;;;9.00;99.90;;;;;;5035429;28;20099;-73
2023/04/29 05:19:18;;;;;;;38.80;15.80;;;9.00;99.90;;;;;;5053006;28;20428;-75
2023/04/29 05:21:44;;;;;;;40.90;15.77;;;9.00;99.90;;;;;;5053640;28;20044;-71
2023/04/29 05:24:10;;;;;;;40.65;15.70;;;9.00;99.90;;;;;;5055583;28;20350;-73
2023/04/29 05:26:35;;;;;;;40.20;15.95;;;9.00;99.90;;;;;;5072728;28;20053;-75
2023/04/29 05:29:01;;;;;;;35.25;14.05;;;9.00;99.90;;;;;;5055497;28;20053;-74
2023/04/29 05:31:27;;;;;;;36.65;15.48;;;9.10;99.90;;;;;;5056163;28;20128;-74
2023/04/29 05:33:53;;;;;;;34.28;13.50;;;9.10;99.90;;;;;;5023277;28;20061;-73
2023/04/29 05:36:19;;;;;;;34.00;14.52;;;9.00;99.90;;;;;;5056340;28;20048;-75
2023/04/29 05:38:45;;;;;;;34.25;13.98;;;9.10;99.90;;;;;;5055466;28;20045;-75
2023/04/29 05:41:12;;;;;;;36.85;13.98;;;9.10;99.90;;;;;;5056157;28;20389;-73
2023/04/29 05:43:38;;;;;;;35.33;13.75;;;9.20;99.90;;;;;;5055900;28;20052;-75
2023/04/29 05:46:05;;;;;;;34.72;15.73;;;9.20;99.90;;;;;;5056890;28;20396;-79
2023/04/29 05:48:30;;;;;;;35.70;14.98;;;9.20;99.90;;;;;;5057025;28;20049;-75
2023/04/29 05:50:56;;;;;;;38.03;15.00;;;9.20;99.90;;;;;;5039023;28;20044;-74
2023/04/29 05:53:22;;;;;;;36.40;15.38;;;9.20;99.90;;;;;;5056202;28;20045;-75
2023/04/29 05:55:49;;;;;;;35.92;14.90;;;9.20;99.90;;;;;;5056924;28;20136;-72
2023/04/29 05:58:15;;;;;;;38.08;16.60;;;9.20;99.90;;;;;;5057207;28;20045;-74
2023/04/29 06:00:42;;;;;;;38.53;18.45;;;9.20;99.90;;;;;;5055709;28;20057;-77
2023/04/29 06:03:10;;;;;;;34.22;13.40;;;9.20;99.90;;;;;;5055214;28;20049;-73
2023/04/29 06:05:35;;;;;;;;;;;9.30;99.90;;;;;;5055700;28;20045;-76
2023/04/29 06:08:01;;;;;;;36.20;14.37;;;9.30;99.90;;;;;;5056555;28;19970;-75
2023/04/29 06:10:27;;;;;;;30.30;13.55;;;9.40;99.90;;;;;;5056148;28;20169;-75
2023/04/29 06:12:53;;;;;;;32.40;13.68;;;9.40;99.90;;;;;;5056050;28;20037;-75
2023/04/29 06:15:19;;;;;;;32.15;13.50;;;9.50;99.90;;;;;;5054954;28;20384;-75
2023/04/29 06:17:44;;;;;;;33.17;13.50;;;9.50;99.90;;;;;;5054861;28;20131;-75
2023/04/29 06:20:10;;;;;;;26.83;11.52;;;9.50;99.90;;;;;;5054736;28;20041;-74
2023/04/29 06:22:36;;;;;;;27.27;12.13;;;9.60;99.90;;;;;;5055936;28;20076;-74
2023/04/29 06:25:02;;;;;;;27.73;11.98;;;9.70;99.90;;;;;;5055641;28;20099;-76
2023/04/29 06:27:28;;;;;;;32.38;11.32;;;9.70;99.90;;;;;;5054582;28;20140;-73
2023/04/29 06:29:54;;;;;;;27.05;11.63;;;9.70;99.90;;;;;;5056438;28;20056;-73
2023/04/29 06:32:20;;;;;;;27.70;12.57;;;9.80;99.90;;;;;;5037655;28;20044;-75
2023/04/29 06:34:45;;;;;;;26.17;10.00;;;9.90;99.90;;;;;;5055250;28;20045;-77
2023/04/29 06:37:11;;;;;;;29.52;11.45;;;9.80;99.90;;;;;;5070920;28;20049;-74
2023/04/29 06:39:37;;;;;;;31.65;13.05;;;9.90;99.90;;;;;;5037673;28;20092;-74
2023/04/29 06:42:02;;;;;;;25.58;12.02;;;9.90;99.90;;;;;;5054927;28;20049;-75
2023/04/29 06:44:28;;;;;;;27.50;11.57;;;10.00;99.90;;;;;;5037726;28;20053;-75
2023/04/29 06:46:54;;;;;;;25.60;10.95;;;10.00;99.90;;;;;;5054000;28;20052;-73
2023/04/29 06:49:20;;;;;;;25.27;11.98;;;10.10;99.90;;;;;;5055107;28;20036;-76
2023/04/29 06:51:46;;;;;;;20.85;10.60;;;10.00;99.90;;;;;;5037621;28;20037;-74
2023/04/29 06:54:12;;;;;;;28.50;12.07;;;10.20;99.90;;;;;;5055043;28;20047;-74
2023/04/29 06:56:38;;;;;;;30.42;13.13;;;10.30;99.90;;;;;;5054872;28;20044;-75
2023/04/29 06:59:04;;;;;;;28.05;11.05;;;10.30;99.90;;;;;;5055503;28;20049;-74
2023/04/29 07:01:30;;;;;;;24.95;11.40;;;10.30;99.90;;;;;;5054835;28;20167;-76
2023/04/29 07:03:56;;;;;;;30.00;12.57;;;10.30;99.90;;;;;;5037442;28;20049;-76
2023/04/29 07:06:21;;;;;;;24.05;12.35;;;10.30;99.90;;;;;;5055074;28;20045;-77
2023/04/29 07:08:47;;;;;;;25.85;9.82;;;10.40;99.90;;;;;;5020711;28;20053;-77
2023/04/29 07:11:13;;;;;;;22.15;8.93;;;10.40;99.90;;;;;;5054069;28;20064;-74
2023/04/29 07:13:38;;;;;;;27.95;13.70;;;10.60;99.90;;;;;;5037279;28;20481;-78
2023/04/29 07:16:05;;;;;;;23.45;10.38;;;10.50;99.90;;;;;;5055071;28;20045;-75
2023/04/29 07:18:31;;;;;;;23.80;12.40;;;10.60;99.90;;;;;;5054467;28;20501;-75
2023/04/29 07:21:00;;;;;;;21.77;9.65;;;10.50;99.90;;;;;;5055410;28;20045;-74
2023/04/29 07:23:26;;;;;;;24.80;9.52;;;10.60;99.90;;;;;;5053650;28;20477;-74
2023/04/29 07:25:52;;;;;;;22.40;10.25;;;10.80;99.90;;;;;;5054431;28;20053;-76
2023/04/29 07:28:17;;;;;;;26.58;9.80;;;10.80;99.90;;;;;;5054270;28;20119;-74
2023/04/29 07:30:43;;;;;;;17.30;8.63;;;10.90;99.90;;;;;;5053519;28;20151;-74
2023/04/29 07:33:09;;;;;;;20.10;9.20;;;10.90;99.90;;;;;;5037112;28;20056;-76
2023/04/29 07:35:35;;;;;;;19.85;9.50;;;10.90;99.90;;;;;;5053783;28;20048;-74
2023/04/29 07:38:00;;;;;;;20.80;10.75;;;11.00;99.90;;;;;;5054561;28;20420;-73
2023/04/29 07:40:26;;;;;;;22.70;9.52;;;11.00;99.90;;;;;;5053337;28;20049;-72
2023/04/29 07:42:52;;;;;;;19.02;7.95;;;11.00;99.90;;;;;;5053389;28;20086;-74
2023/04/29 07:45:18;;;;;;;18.45;8.85;;;11.00;99.90;;;;;;5053942;28;20041;-73
2023/04/29 07:47:44;;;;;;;17.85;8.52;;;11.10;99.90;;;;;;5054122;28;20045;-73
2023/04/29 07:50:10;;;;;;;18.60;8.70;;;11.10;99.90;;;;;;5054076;28;20401;-73
2023/04/29 07:52:36;;;;;;;21.52;9.38;;;11.10;99.90;;;;;;5052755;28;20045;-74
2023/04/29 07:55:02;;;;;;;19.02;8.85;;;10.90;99.90;;;;;;5052835;28;20060;-74
2023/04/29 07:57:28;;;;;;;16.20;6.47;;;10.90;99.90;;;;;;5020173;28;20052;-76
2023/04/29 07:59:54;;;;;;;20.05;8.80;;;10.90;99.90;;;;;;5052640;28;20397;-72
2023/04/29 08:02:20;;;;;;;17.42;7.60;;;11.00;99.90;;;;;;5052884;28;20057;-73
2023/04/29 08:04:46;;;;;;;15.80;8.00;;;11.10;99.90;;;;;;5052371;28;20049;-74
2023/04/29 08:07:12;;;;;;;19.75;9.30;;;11.20;99.90;;;;;;5052890;28;20051;-74
2023/04/29 08:09:38;;;;;;;18.13;8.70;;;11.30;99.90;;;;;;5052794;28;20049;-76
2023/04/29 08:12:04;;;;;;;19.17;8.30;;;11.40;99.90;;;;;;5035791;28;20045;-77
2023/04/29 08:14:30;;;;;;;20.08;7.90;;;11.40;99.90;;;;;;5053646;28;20052;-78
2023/04/29 08:16:55;;;;;;;19.17;7.80;;;11.50;99.90;;;;;;5052381;28;20045;-75
2023/04/29 08:19:21;;;;;;;17.67;8.18;;;11.50;99.90;;;;;;5053509;28;20045;-74
2023/04/29 08:21:47;;;;;;;16.63;7.95;;;11.60;99.90;;;;;;5053565;28;20041;-74
2023/04/29 08:24:13;;;;;;;19.70;9.55;;;11.80;99.90;;;;;;5019778;28;20086;-75
2023/04/29 08:26:40;;;;;;;16.02;8.48;;;11.90;99.90;;;;;;5052911;28;20083;-76
2023/04/29 08:29:06;;;;;;;14.32;6.78;;;12.10;99.90;;;;;;5053153;28;20136;-72
2023/04/29 08:31:33;;;;;;;16.27;6.45;;;12.20;99.90;;;;;;5052262;28;20551;-74
2023/04/29 08:33:59;;;;;;;16.90;7.05;;;12.30;99.90;;;;;;5053331;28;20048;-78
2023/04/29 08:36:26;;;;;;;18.17;7.35;;;12.30;99.90;;;;;;5053989;28;20361;-73
2023/04/29 08:38:52;;;;;;;17.40;8.75;;;12.40;99.90;;;;;;5052609;28;20076;-74
2023/04/29 08:41:18;;;;;;;15.05;7.20;;;12.40;99.90;;;;;;5052379;28;20044;-74
2023/04/29 08:43:44;;;;;;;17.35;8.18;;;12.50;99.90;;;;;;5053379;28;20120;-78
2023/04/29 08:46:10;;;;;;;12.52;6.90;;;12.40;99.90;;;;;;5053574;28;20379;-74
2023/04/29 08:48:36;;;;;;;18.92;7.85;;;12.30;99.90;;;;;;5053154;28;20044;-74
2023/04/29 08:51:03;;;;;;;16.23;7.05;;;12.30;99.90;;;;;;5054163;28;20049;-75
2023/04/29 08:53:29;;;;;;;17.45;7.38;;;12.30;99.90;;;;;;5054540;28;20049;-73
2023/04/29 08:55:56;;;;;;;12.30;6.32;;;12.40;99.90;;;;;;5035584;28;20413;-73
2023/04/29 08:58:25;;;;;;;14.30;7.30;;;12.50;99.90;;;;;;5057085;28;20052;-74
2023/04/29 09:00:51;;;;;;;17.60;6.70;;;12.60;99.90;;;;;;5056989;28;20099;-75
2023/04/29 09:03:26;;;;;;;12.18;7.05;;;12.70;99.90;;;;;;5039759;28;20416;-74
2023/04/29 09:05:57;;;;;;;17.77;7.75;;;12.80;99.90;;;;;;5056327;28;20052;-74
2023/04/29 09:08:23;;;;;;;11.30;6.00;;;12.80;99.90;;;;;;5056096;28;20490;-74
2023/04/29 09:10:52;;;;;;;13.93;6.75;;;12.90;99.90;;;;;;5039985;28;20049;-74
2023/04/29 09:13:26;;;;;;;14.23;7.53;;;13.00;99.90;;;;;;5040174;28;20056;-74
2023/04/29 09:15:53;;;;;;;14.23;6.50;;;13.00;99.90;;;;;;5057415;28;20049;-74
2023/04/29 09:18:42;;;;;;;15.57;7.10;;;13.10;99.90;;;;;;5055697;28;20055;-73
2023/04/29 09:21:22;;;;;;;15.77;7.03;;;13.40;99.90;;;;;;5055405;28;20101;-74
2023/04/29 09:23:56;;;;;;;13.48;7.25;;;13.40;99.90;;;;;;5038924;28;20056;-73
2023/04/29 09:26:23;;;;;;;15.75;8.07;;;13.60;99.90;;;;;;5056550;28;20041;-77
2023/04/29 09:29:10;;;;;;;14.55;7.57;;;13.70;99.90;;;;;;5056255;28;20428;-73
2023/04/29 09:31:38;;;;;;;17.80;8.05;;;13.90;99.90;;;;;;5039323;28;20080;-76
2023/04/29 09:34:03;;;;;;;14.60;7.25;;;14.10;99.90;;;;;;5056269;28;20053;-73
2023/04/29 09:36:46;;;;;;;14.32;7.28;;;;;;;;;;5056776;28;20045;-74
2023/04/29 09:39:21;;;;;;;11.20;6.07;;;14.10;99.90;;;;;;5057000;28;20059;-73
2023/04/29 09:41:53;;;;;;;11.80;6.28;;;;;;;;;;5056082;28;20451;-73
2023/04/29 09:44:29;;;;;;;13.90;6.55;;;12.10;99.90;;;;;;5056124;28;20497;-74
2023/04/29 09:47:03;;;;;;;11.45;5.35;;;13.80;99.90;;;;;;5056463;28;20044;-72
2023/04/29 09:49:41;;;;;;;16.23;7.50;;;13.90;99.90;;;;;;5056723;28;20461;-75
2023/04/29 09:52:12;;;;;;;11.07;6.00;;;13.60;99.90;;;;;;5039228;28;20044;-74
2023/04/29 09:54:39;;;;;;;14.18;6.75;;;13.80;99.90;;;;;;5038461;28;20055;-75
2023/04/29 09:57:06;;;;;;;;;;;14.00;99.90;;;;;;5055477;28;20053;-75
2023/04/29 09:59:36;;;;;;;12.95;5.28;;;14.10;99.90;;;;;;5055022;28;19932;-73
2023/04/29 10:02:09;;;;;;;14.70;6.22;;;14.00;99.90;;;;;;5055901;28;20105;-74
2023/04/29 10:04:38;;;;;;;15.13;6.47;;;13.90;99.90;;;;;;5056453;28;20123;-74
2023/04/29 10:07:05;;;;;;;13.98;6.85;;;14.00;99.90;;;;;;5056018;28;20048;-74
2023/04/29 10:09:31;;;;;;;13.35;6.45;;;14.10;99.90;;;;;;5021620;28;20084;-75
2023/04/29 10:11:56;;;;;;;10.48;5.60;;;13.90;99.90;;;;;;5055511;28;20146;-73
2023/04/29 10:14:24;;;;;;;9.77;4.95;;;14.30;99.90;;;;;;5038458;28;20052;-74
2023/04/29 10:17:08;;;;;;;11.23;4.63;;;14.60;99.90;;;;;;5056357;28;20045;-74
2023/04/29 10:19:39;;;;;;;10.75;5.75;;;14.80;99.90;;;;;;5055498;28;20347;-73
2023/04/29 10:22:14;;;;;;;10.13;6.43;;;14.60;99.90;;;;;;5056384;28;20055;-75
2023/04/29 10:24:41;;;;;;;10.73;6.10;;;14.10;99.90;;;;;;5055034;28;20389;-75
2023/04/29 10:27:12;;;;;;;11.40;5.72;;;13.90;99.90;;;;;;5054651;28;20053;-74
2023/04/29 10:29:42;;;;;;;11.52;5.40;;;13.90;99.90;;;;;;5037558;28;20501;-74
2023/04/29 10:32:09;;;;;;;14.07;5.03;;;14.10;99.90;;;;;;5055121;28;20076;-73
2023/04/29 10:34:36;;;;;;;;;;;14.20;99.90;;;;;;5054692;28;20410;-74
2023/04/29 10:37:02;;;;;;;11.43;4.55;;;14.30;99.90;;;;;;5054869;28;19974;-74
2023/04/29 10:40:05;;;;;;;10.73;5.57;;;14.50;99.90;;;;;;5054164;28;20045;-74
2023/04/29 10:42:42;;;;;;;9.65;4.90;;;14.80;99.90;;;;;;5054608;28;20053;-73
2023/04/29 10:45:21;;;;;;;10.93;5.75;;;14.60;99.90;;;;;;5056239;28;20049;-72
2023/04/29 10:48:13;;;;;;;10.75;4.72;;;14.40;99.90;;;;;;5055182;28;20057;-72
2023/04/29 10:50:51;;;;;;;9.88;4.70;;;14.80;99.90;;;;;;5085481;28;20092;-73
2023/04/29 10:53:18;;;;;;;11.77;5.10;;;15.10;99.90;;;;;;5037572;28;20052;-72
2023/04/29 10:56:05;;;;;;;9.15;4.63;;;15.10;99.90;;;;;;5037684;28;20424;-72
2023/04/29 10:58:38;;;;;;;10.65;5.15;;;15.00;99.90;;;;;;5037850;28;20048;-74
2023/04/29 11:01:04;;;;;;;15.05;6.18;;;14.80;99.90;;;;;;5053481;28;20521;-72
2023/04/29 11:03:54;;;;;;;11.43;5.50;;;14.50;99.90;;;;;;5053719;28;20049;-72
2023/04/29 11:06:23;;;;;;;10.52;5.07;;;14.80;99.90;;;;;;5053833;28;20179;-74
2023/04/29 11:09:00;;;;;;;11.57;5.28;;;14.70;99.90;;;;;;5054965;28;20045;-73
2023/04/29 11:11:25;;;;;;;11.35;5.25;;;14.40;99.90;;;;;;5054412;28;20099;-73
2023/04/29 11:13:52;;;;;;;9.55;4.85;;;14.60;99.90;;;;;;5053907;28;20078;-73
2023/04/29 11:16:27;;;;;;;11.68;5.28;;;14.50;99.90;;;;;;5053727;28;20374;-73
2023/04/29 11:19:13;;;;;;;11.23;5.35;;;14.50;99.90;;;;;;5054472;28;20045;-72
2023/04/29 11:21:39;;;;;;;9.50;4.60;;;14.50;99.90;;;;;;5053588;28;20538;-75
2023/04/29 11:24:05;;;;;;;11.98;5.30;;;14.50;99.90;;;;;;5053445;28;20048;-73
2023/04/29 11:26:35;;;;;;;10.35;4.82;;;14.30;99.90;;;;;;5037682;28;20390;-74
2023/04/29 11:29:01;;;;;;;9.63;4.57;;;14.40;99.90;;;;;;5053288;28;20131;-72
2023/04/29 11:31:30;;;;;;;10.93;4.70;;;14.50;99.90;;;;;;5037071;28;20150;-73
2023/04/29 11:33:57;;;;;;;11.00;5.10;;;14.60;99.90;;;;;;5055055;28;20057;-74
2023/04/29 11:36:23;;;;;;;12.32;4.57;;;14.50;99.90;;;;;;5053227;28;20413;-76
2023/04/29 11:38:49;;;;;;;8.30;4.70;;;14.50;99.90;;;;;;5053316;28;20111;-74
2023/04/29 11:41:15;;;;;;;9.75;3.85;;;14.50;99.90;;;;;;5052933;28;20452;-72
2023/04/29 11:43:42;;;;;;;8.02;4.10;;;14.60;99.90;;;;;;5052987;28;20472;-75
2023/04/29 11:46:15;;;;;;;9.18;4.45;;;14.50;99.90;;;;;;5053488;28;20127;-75
2023/04/29 11:48:48;;;;;;;9.45;4.25;;;14.70;99.90;;;;;;5036437;28;20105;-73
2023/04/29 11:51:18;;;;;;;10.48;4.65;;;14.90;99.90;;;;;;5054062;28;20056;-73
2023/04/29 11:53:44;;;;;;;12.50;4.75;;;14.90;99.90;;;;;;5036127;28;20055;-74
2023/04/29 11:56:10;;;;;;;10.00;4.28;;;14.90;99.90;;;;;;5053342;28;20448;-72
2023/04/29 11:58:36;;;;;;;9.30;4.13;;;15.00;99.90;;;;;;5052874;28;20051;-73
2023/04/29 12:01:03;;;;;;;8.98;4.40;;;14.80;99.90;;;;;;5053935;28;20170;-74
2023/04/29 12:03:31;;;;;;;8.48;3.38;;;15.10;99.90;;;;;;5035903;28;20052;-74
2023/04/29 12:05:57;;;;;;;7.95;3.53;;;14.90;99.40;;;;;;5053778;28;20037;-74
2023/04/29 12:08:25;;;;;;;12.50;3.03;;;14.90;99.90;;;;;;5054004;28;20051;-73
2023/04/29 12:10:55;;;;;;;8.38;2.92;;;14.80;99.90;;;;;;5052097;28;20127;-71
2023/04/29 12:13:24;;;;;;;6.60;3.03;;;14.90;99.90;;;;;;5052628;28;20044;-76
2023/04/29 12:15:51;;;;;;;11.88;3.38;;;15.00;99.90;;;;;;5052544;28;20078;-73
2023/04/29 12:18:18;;;;;;;9.88;3.67;;;15.10;99.90;;;;;;5036010;28;20128;-76
2023/04/29 12:20:44;;;;;;;;;;;15.00;99.90;;;;;;5053082;28;20055;-72
2023/04/29 12:23:13;;;;;;;7.30;3.53;;;15.10;99.90;;;;;;5052551;28;20391;-73
2023/04/29 12:25:42;;;;;;;5.95;2.55;;;15.30;99.90;;;;;;5052555;28;20047;-76
2023/04/29 12:28:12;;;;;;;6.30;2.65;;;15.30;99.90;;;;;;5053045;28;20037;-73
2023/04/29 12:30:38;;;;;;;8.25;3.60;;;15.40;99.90;;;;;;5035870;28;20057;-74
2023/04/29 12:33:05;;;;;;;7.90;3.15;;;15.40;99.90;;;;;;5053021;28;20037;-73
2023/04/29 12:35:31;;;;;;;9.75;2.95;;;15.30;99.80;;;;;;5036007;28;20164;-72
2023/04/29 12:37:58;;;;;;;6.85;3.20;;;15.70;99.90;;;;;;5052390;28;20049;-73
2023/04/29 12:40:24;;;;;;;7.47;3.28;;;15.80;99.90;;;;;;5052297;28;20049;-72
2023/04/29 12:42:52;;;;;;;8.70;3.40;;;15.90;99.70;;;;;;5052887;28;20507;-72